createdAt,value
2024-04-08T00:02:12.928Z,101247.69
2024-04-08T00:04:39.635Z,101256.88
2024-04-08T00:07:06.221Z,101255.31
2024-04-08T00:09:32.784Z,101254.63
2024-04-08T00:11:59.343Z,101256.56
2024-04-08T00:14:26.026Z,101255.00
2024-04-08T00:16:52.979Z,101261.97
2024-04-08T00:19:19.534Z,101250.59
2024-04-08T00:21:46.080Z,101247.38
2024-04-08T00:24:12.717Z,101250.31
2024-04-08T00:26:39.354Z,101252.13
2024-04-08T00:29:05.962Z,101248.63
2024-04-08T00:31:33.060Z,101253.88
2024-04-08T00:33:59.686Z,101251.66
2024-04-08T00:36:26.250Z,101250.69
2024-04-08T00:38:52.805Z,101249.03
2024-04-08T00:41:19.414Z,101248.34
2024-04-08T00:43:46.066Z,101249.28
2024-04-08T00:46:24.109Z,101253.88
2024-04-08T00:48:56.087Z,101251.38
2024-04-08T00:51:24.115Z,101254.97
2024-04-08T00:53:51.063Z,101251.75
2024-04-08T00:56:20.201Z,101252.72
2024-04-08T00:58:50.175Z,101246.03
2024-04-08T01:01:18.623Z,101244.28
2024-04-08T01:03:46.565Z,101244.38
2024-04-08T01:06:13.870Z,101239.94
2024-04-08T01:08:41.843Z,101238.13
2024-04-08T01:11:09.808Z,101231.22
2024-04-08T01:13:36.551Z,101226.47
2024-04-08T01:16:03.258Z,101226.47
2024-04-08T01:18:29.982Z,101212.34
2024-04-08T01:20:56.528Z,101207.09
2024-04-08T01:23:26.088Z,101211.53
2024-04-08T01:25:52.650Z,101216.66
2024-04-08T01:28:22.280Z,101210.66
2024-04-08T01:30:51.172Z,101224.09
2024-04-08T01:33:18.065Z,101227.56
2024-04-08T01:35:44.800Z,101222.44
2024-04-08T01:38:11.378Z,101224.38
2024-04-08T01:40:37.956Z,101226.06
2024-04-08T01:43:04.670Z,101218.53
2024-04-08T01:45:31.438Z,101217.97
2024-04-08T01:47:58.204Z,101218.81
2024-04-08T01:50:24.840Z,101209.25
2024-04-08T01:52:51.422Z,101210.19
2024-04-08T01:55:17.986Z,101214.38
2024-04-08T01:57:45.361Z,101213.53
2024-04-08T02:00:12.053Z,101209.25
2024-04-08T02:02:38.678Z,101208.53
2024-04-08T02:05:05.452Z,101203.78
2024-04-08T02:07:32.013Z,101201.03
2024-04-08T02:09:59.435Z,101199.34
2024-04-08T02:12:27.951Z,101195.06
2024-04-08T02:14:54.517Z,101189.38
2024-04-08T02:17:21.086Z,101183.25
2024-04-08T02:19:47.668Z,101179.22
2024-04-08T02:22:14.222Z,101171.69
2024-04-08T02:24:40.874Z,101159.78
2024-04-08T02:27:09.842Z,101165.16
2024-04-08T02:29:39.183Z,101168.66
2024-04-08T02:32:05.874Z,101176.66
2024-04-08T02:34:32.702Z,101179.44
2024-04-08T02:36:59.242Z,101181.22
2024-04-08T02:39:25.862Z,101178.03
2024-04-08T02:41:52.560Z,101179.59
2024-04-08T02:44:19.346Z,101184.88
2024-04-08T02:46:45.918Z,101182.97
2024-04-08T02:49:12.507Z,101182.00
2024-04-08T02:51:39.072Z,101173.66
2024-04-08T02:54:05.808Z,101172.94
2024-04-08T02:56:33.607Z,101170.84
2024-04-08T02:59:00.236Z,101178.16
2024-04-08T03:01:26.771Z,101173.72
2024-04-08T03:03:54.948Z,101175.28
2024-04-08T03:06:21.497Z,101160.81
2024-04-08T03:08:48.182Z,101149.72
2024-04-08T03:11:14.932Z,101152.47
2024-04-08T03:13:41.809Z,101158.72
2024-04-08T03:16:08.950Z,101151.78
2024-04-08T03:18:35.599Z,101157.03
2024-04-08T03:21:04.533Z,101160.78
2024-04-08T03:23:31.508Z,101162.69
2024-04-08T03:26:02.615Z,101159.34
2024-04-08T03:28:30.084Z,101170.56
2024-04-08T03:30:57.717Z,101167.94
2024-04-08T03:33:30.108Z,101182.06
2024-04-08T03:35:57.251Z,101179.44
2024-04-08T03:38:23.919Z,101175.28
2024-04-08T03:41:01.330Z,101171.94
2024-04-08T03:43:29.003Z,101166.94
2024-04-08T03:45:56.497Z,101161.53
2024-04-08T03:48:23.129Z,101150.19
2024-04-08T03:50:49.901Z,101143.38
2024-04-08T03:53:16.947Z,101145.19
2024-04-08T03:55:43.579Z,101153.22
2024-04-08T03:58:10.144Z,101147.94
2024-04-08T04:00:36.792Z,101146.16
2024-04-08T04:03:08.922Z,101147.94
2024-04-08T04:05:37.137Z,101144.50
2024-04-08T04:08:04.057Z,101137.66
2024-04-08T04:10:30.694Z,101150.00
2024-04-08T04:12:57.273Z,101132.41
2024-04-08T04:15:23.886Z,101138.50
2024-04-08T04:17:50.569Z,101138.50
2024-04-08T04:20:20.386Z,101136.00
2024-04-08T04:22:48.006Z,101118.56
2024-04-08T04:25:16.939Z,101092.50
2024-04-08T04:27:43.476Z,101093.59
2024-04-08T04:30:10.409Z,101085.41
2024-04-08T04:32:37.129Z,101091.03
2024-04-08T04:35:03.965Z,101086.88
2024-04-08T04:37:30.543Z,101083.78
2024-04-08T04:39:57.192Z,101083.59
2024-04-08T04:42:23.756Z,101100.59
2024-04-08T04:44:51.958Z,101110.53
2024-04-08T04:47:18.732Z,101116.75
2024-04-08T04:49:45.369Z,101105.41
2024-04-08T04:52:13.526Z,101109.22
2024-04-08T04:54:40.723Z,101100.41
2024-04-08T04:57:07.279Z,101100.66
2024-04-08T04:59:33.867Z,101100.66
2024-04-08T05:02:00.800Z,101107.84
2024-04-08T05:04:27.405Z,101104.38
2024-04-08T05:06:54.100Z,101108.06
2024-04-08T05:09:20.680Z,101118.59
2024-04-08T05:11:47.320Z,101136.16
2024-04-08T05:14:13.948Z,101144.50
2024-04-08T05:16:40.562Z,101140.66
2024-04-08T05:19:07.143Z,101136.81
2024-04-08T05:21:33.724Z,101127.00
2024-04-08T05:24:00.793Z,101119.84
2024-04-08T05:26:30.886Z,101143.22
2024-04-08T05:28:57.669Z,101144.06
2024-04-08T05:31:24.272Z,101156.25
2024-04-08T05:33:51.231Z,101147.28
2024-04-08T05:36:33.836Z,101154.34
2024-04-08T05:39:01.604Z,101163.91
2024-04-08T05:41:34.525Z,101177.03
2024-04-08T05:44:01.403Z,101184.81
2024-04-08T05:46:31.244Z,101184.94
2024-04-08T05:48:57.810Z,101188.41
2024-04-08T05:51:29.698Z,101206.66
2024-04-08T05:53:56.510Z,101210.72
2024-04-08T05:58:53.248Z,101213.56
2024-04-08T06:01:19.870Z,101191.56
2024-04-08T06:03:46.735Z,101173.84
2024-04-08T06:09:10.563Z,101148.50
2024-04-08T06:11:37.299Z,101145.75
2024-04-08T06:14:03.978Z,101143.72
2024-04-08T06:16:33.430Z,101158.25
2024-04-08T06:19:01.624Z,101165.63
2024-04-08T06:21:28.478Z,101169.56
2024-04-08T06:26:37.299Z,101168.34
2024-04-08T06:29:04.061Z,101175.97
2024-04-08T06:31:31.078Z,101171.31
2024-04-08T06:33:57.835Z,101163.28
2024-04-08T06:36:24.487Z,101157.75
2024-04-08T06:39:04.070Z,101157.22
2024-04-08T06:41:30.826Z,101156.97
2024-04-08T06:43:57.485Z,101158.66
2024-04-08T06:46:24.346Z,101173.34
2024-04-08T06:48:50.952Z,101175.81
2024-04-08T06:51:17.575Z,101180.84
2024-04-08T06:53:44.346Z,101191.81
2024-04-08T06:56:12.457Z,101194.69
2024-04-08T06:58:39.172Z,101188.84
2024-04-08T07:01:05.848Z,101187.38
2024-04-08T07:03:35.662Z,101182.31
2024-04-08T07:06:02.445Z,101187.97
2024-04-08T07:08:29.325Z,101184.56
2024-04-08T07:10:56.005Z,101188.44
2024-04-08T07:13:23.776Z,101191.38
2024-04-08T07:15:55.836Z,101193.09
2024-04-08T07:18:22.898Z,101193.09
2024-04-08T07:20:51.774Z,101189.50
2024-04-08T07:23:18.565Z,101192.28
2024-04-08T07:25:50.479Z,101186.03
2024-04-08T07:28:17.354Z,101190.06
2024-04-08T07:30:44.018Z,101186.63
2024-04-08T07:33:10.744Z,101183.88
2024-04-08T07:35:38.145Z,101185.25
2024-04-08T07:38:05.145Z,101179.56
2024-04-08T07:40:31.928Z,101184.16
2024-04-08T07:42:58.517Z,101187.63
2024-04-08T07:45:26.047Z,101189.16
2024-04-08T07:47:52.791Z,101188.44
2024-04-08T07:50:19.574Z,101186.78
2024-04-08T07:52:49.274Z,101177.63
2024-04-08T07:55:17.343Z,101164.59
2024-04-08T07:57:44.018Z,101154.34
2024-04-08T08:00:11.269Z,101153.75
2024-04-08T08:02:37.973Z,101145.41
2024-04-08T08:05:04.927Z,101158.84
2024-04-08T08:07:32.110Z,101161.34
2024-04-08T08:09:58.762Z,101155.47
2024-04-08T08:12:25.568Z,101136.13
2024-04-08T08:14:54.187Z,101123.03
2024-04-08T08:17:27.373Z,101124.63
2024-04-08T08:19:56.126Z,101120.56
2024-04-08T08:22:32.587Z,101124.13
2024-04-08T08:25:19.343Z,101111.19
2024-04-08T08:28:07.604Z,101096.66
2024-04-08T08:30:41.535Z,101101.59
2024-04-08T08:33:08.567Z,101102.38
2024-04-08T08:35:35.268Z,101096.84
2024-04-08T08:38:01.960Z,101088.97
2024-04-08T08:40:33.623Z,101094.19
2024-04-08T08:43:00.312Z,101089.56
2024-04-08T08:45:28.580Z,101095.09
2024-04-08T08:47:58.609Z,101088.03
2024-04-08T08:50:27.775Z,101077.38
2024-04-08T08:52:54.398Z,101074.28
2024-04-08T08:55:25.155Z,101070.75
2024-04-08T08:57:54.900Z,101075.63
2024-04-08T09:00:21.695Z,101082.47
2024-04-08T09:02:49.666Z,101073.44
2024-04-08T09:05:17.409Z,101079.03
2024-04-08T09:07:44.106Z,101090.06
2024-04-08T09:10:10.829Z,101096.72
2024-04-08T09:12:42.449Z,101093.19
2024-04-08T09:15:12.750Z,101087.72
2024-04-08T09:17:39.842Z,101092.41
2024-04-08T09:20:07.608Z,101085.94
2024-04-08T09:22:34.284Z,101078.47
2024-04-08T09:25:01.096Z,101078.16
2024-04-08T09:27:27.756Z,101078.41
2024-04-08T09:29:54.439Z,101087.59
2024-04-08T09:32:21.215Z,101079.22
2024-04-08T09:34:47.847Z,101087.91
2024-04-08T09:37:15.393Z,101081.91
2024-04-08T09:39:42.230Z,101086.06
2024-04-08T09:42:13.632Z,101085.69
2024-04-08T09:44:44.864Z,101073.09
2024-04-08T09:47:14.162Z,101079.06
2024-04-08T09:49:49.759Z,101084.88
2024-04-08T09:52:17.669Z,101075.03
2024-04-08T09:54:44.582Z,101071.38
2024-04-08T09:57:17.942Z,101065.91
2024-04-08T09:59:57.775Z,101060.09
2024-04-08T10:02:31.586Z,101053.63
2024-04-08T10:05:03.816Z,101037.22
2024-04-08T10:07:49.865Z,101034.06
2024-04-08T10:10:16.869Z,101039.88
2024-04-08T10:12:43.643Z,101039.88
2024-04-08T10:15:11.151Z,101041.53
2024-04-08T10:20:44.832Z,101045.81
2024-04-08T10:23:16.132Z,101054.78
2024-04-08T10:25:47.207Z,101049.00
2024-04-08T10:28:21.915Z,101035.41
2024-04-08T10:30:54.052Z,101034.06
2024-04-08T10:33:25.775Z,101031.03
2024-04-08T10:36:21.665Z,101028.50
2024-04-08T10:38:48.735Z,101034.25
2024-04-08T10:41:21.298Z,101029.41
2024-04-08T10:43:48.004Z,101028.91
2024-04-08T10:46:20.118Z,101025.09
2024-04-08T10:48:46.759Z,101019.97
2024-04-08T10:51:17.861Z,101012.09
2024-04-08T10:53:44.813Z,101036.06
2024-04-08T10:56:11.513Z,101034.16
2024-04-08T10:58:38.101Z,101027.72
2024-04-08T11:01:05.649Z,101025.03
2024-04-08T11:03:33.013Z,101014.88
2024-04-08T11:05:59.820Z,101011.56
2024-04-08T11:08:26.991Z,101008.19
2024-04-08T11:10:54.400Z,101000.50
2024-04-08T11:13:21.273Z,100999.50
2024-04-08T11:15:50.909Z,100992.34
2024-04-08T11:18:20.429Z,101002.28
2024-04-08T11:20:47.667Z,101005.72
2024-04-08T11:23:15.464Z,100984.81
2024-04-08T11:25:42.141Z,100983.31
2024-04-08T11:28:10.096Z,100982.94
2024-04-08T11:30:38.826Z,100986.59
2024-04-08T11:33:05.764Z,100992.63
2024-04-08T11:35:32.563Z,100990.00
2024-04-08T11:38:07.111Z,100989.47
2024-04-08T11:40:40.787Z,100991.28
2024-04-08T11:43:07.473Z,100984.06
2024-04-08T11:45:34.372Z,100991.97
2024-04-08T11:48:01.198Z,100982.00
2024-04-08T11:50:27.858Z,100982.94
2024-04-08T11:52:54.532Z,100986.53
2024-04-08T11:55:21.355Z,100979.34
2024-04-08T11:57:50.226Z,100985.44
2024-04-08T12:00:22.236Z,100978.81
2024-04-08T12:02:54.870Z,100975.00
2024-04-08T12:05:21.826Z,100976.84
2024-04-08T12:07:48.477Z,100967.38
2024-04-08T12:10:15.162Z,100959.84
2024-04-08T12:12:41.992Z,100952.16
2024-04-08T12:15:09.558Z,100952.69
2024-04-08T12:17:36.398Z,100946.38
2024-04-08T12:20:04.144Z,100938.56
2024-04-08T12:22:30.837Z,100925.66
2024-04-08T12:24:57.467Z,100928.34
2024-04-08T12:27:29.214Z,100924.84
2024-04-08T12:29:56.075Z,100934.84
2024-04-08T12:32:23.729Z,100926.13
2024-04-08T12:34:52.780Z,100923.16
2024-04-08T12:37:20.622Z,100916.91
2024-04-08T12:39:47.298Z,100930.06
2024-04-08T12:42:13.944Z,100935.09
2024-04-08T12:44:43.638Z,100924.81
2024-04-08T12:47:12.922Z,100922.63
2024-04-08T12:49:39.590Z,100929.88
2024-04-08T12:52:06.659Z,100922.28
2024-04-08T12:54:42.998Z,100920.63
2024-04-08T12:57:12.404Z,100925.75
2024-04-08T12:59:39.049Z,100923.81
2024-04-08T13:02:05.813Z,100913.50
2024-04-08T13:04:32.596Z,100911.72
2024-04-08T13:07:03.643Z,100901.06
2024-04-08T13:09:35.153Z,100903.16
2024-04-08T13:12:02.300Z,100902.97
2024-04-08T13:14:28.895Z,100897.47
2024-04-08T13:16:55.523Z,100892.78
2024-04-08T13:19:22.148Z,100894.09
2024-04-08T13:21:48.728Z,100884.53
2024-04-08T13:24:15.525Z,100888.13
2024-04-08T13:26:43.824Z,100898.97
2024-04-08T13:29:10.674Z,100886.22
2024-04-08T13:31:39.058Z,100894.63
2024-04-08T13:34:06.541Z,100884.34
2024-04-08T13:36:33.554Z,100878.91
2024-04-08T13:39:00.290Z,100880.78
2024-04-08T13:41:26.876Z,100880.72
2024-04-08T13:43:53.641Z,100885.13
2024-04-08T13:46:20.242Z,100885.63
2024-04-08T13:48:47.046Z,100875.19
2024-04-08T13:51:14.720Z,100874.38
2024-04-08T13:53:45.853Z,100872.34
2024-04-08T13:56:12.563Z,100870.09
2024-04-08T13:58:39.179Z,100850.22
2024-04-08T14:01:07.447Z,100859.88
2024-04-08T14:03:46.675Z,100843.56
2024-04-08T14:06:14.126Z,100839.25
2024-04-08T14:08:41.008Z,100839.06
2024-04-08T14:11:10.522Z,100829.66
2024-04-08T14:13:37.670Z,100813.50
2024-04-08T14:16:08.284Z,100811.63
2024-04-08T14:18:35.228Z,100792.75
2024-04-08T14:21:01.893Z,100798.56
2024-04-08T14:23:28.540Z,100803.06
2024-04-08T14:25:57.482Z,100789.81
2024-04-08T14:28:26.206Z,100785.72
2024-04-08T14:30:52.880Z,100790.28
2024-04-08T14:33:19.861Z,100784.72
2024-04-08T14:35:46.694Z,100774.22
2024-04-08T14:38:38.217Z,100778.19
2024-04-08T14:41:01.183Z,100771.63
2024-04-08T14:43:33.301Z,100765.22
2024-04-08T14:46:06.683Z,100762.00
2024-04-08T14:48:33.486Z,100763.13
2024-04-08T14:51:00.299Z,100759.69
2024-04-08T14:53:27.230Z,100763.59
2024-04-08T14:55:54.492Z,100760.88
2024-04-08T14:58:22.432Z,100754.34
2024-04-08T15:00:49.840Z,100756.06
2024-04-08T15:03:16.611Z,100754.19
2024-04-08T15:05:44.607Z,100748.38
2024-04-08T15:08:15.713Z,100742.19
2024-04-08T15:10:42.295Z,100734.13
2024-04-08T15:13:08.934Z,100723.31
2024-04-08T15:15:35.584Z,100715.97
2024-04-08T15:18:02.231Z,100720.03
2024-04-08T15:20:29.591Z,100713.22
2024-04-08T15:22:57.547Z,100718.44
2024-04-08T15:25:24.453Z,100711.97
2024-04-08T15:27:51.071Z,100720.38
2024-04-08T15:30:17.859Z,100715.16
2024-04-08T15:32:44.676Z,100705.97
2024-04-08T15:35:28.478Z,100694.19
2024-04-08T15:37:55.600Z,100690.97
2024-04-08T15:40:22.490Z,100682.66
2024-04-08T15:42:49.170Z,100678.50
2024-04-08T15:45:18.816Z,100678.88
2024-04-08T15:47:46.079Z,100681.47
2024-04-08T15:50:12.850Z,100677.59
2024-04-08T15:52:39.416Z,100673.69
2024-04-08T15:55:06.128Z,100666.25
2024-04-08T15:57:35.365Z,100669.63
2024-04-08T16:00:02.160Z,100663.47
2024-04-08T16:02:28.847Z,100655.31
2024-04-08T16:04:56.402Z,100651.00
2024-04-08T16:07:23.165Z,100645.13
2024-04-08T16:09:49.697Z,100636.66
2024-04-08T16:12:16.966Z,100630.25
2024-04-08T16:14:43.893Z,100627.59
2024-04-08T16:17:11.960Z,100625.75
2024-04-08T16:19:41.199Z,100626.09
2024-04-08T16:22:07.767Z,100627.50
2024-04-08T16:24:34.587Z,100629.97
2024-04-08T16:27:04.594Z,100637.13
2024-04-08T16:29:31.311Z,100638.31
2024-04-08T16:31:57.929Z,100635.81
2024-04-08T16:34:24.726Z,100628.38
2024-04-08T16:36:51.369Z,100630.75
2024-04-08T16:39:19.613Z,100629.25
2024-04-08T16:41:46.910Z,100623.03
2024-04-08T16:44:13.545Z,100615.69
2024-04-08T16:46:40.122Z,100615.22
2024-04-08T16:49:06.750Z,100620.94
2024-04-08T16:51:34.999Z,100619.63
2024-04-08T16:54:01.722Z,100616.09
2024-04-08T16:56:31.783Z,100613.84
2024-04-08T16:58:58.334Z,100616.69
2024-04-08T17:01:34.244Z,100621.34
2024-04-08T17:04:06.426Z,100613.91
2024-04-08T17:06:50.087Z,100611.44
2024-04-08T17:09:17.992Z,100609.13
2024-04-08T17:11:46.792Z,100611.72
2024-04-08T17:14:13.375Z,100611.50
2024-04-08T17:16:39.999Z,100608.94
2024-04-08T17:19:06.959Z,100606.88
2024-04-08T17:21:36.721Z,100603.13
2024-04-08T17:24:04.999Z,100612.94
2024-04-08T17:26:31.573Z,100606.31
2024-04-08T17:28:58.100Z,100608.28
2024-04-08T17:31:24.659Z,100596.56
2024-04-08T17:33:51.474Z,100599.13
2024-04-08T17:36:18.142Z,100598.66
2024-04-08T17:38:44.795Z,100598.66
2024-04-08T17:41:13.891Z,100596.38
2024-04-08T17:43:42.116Z,100599.13
2024-04-08T17:46:09.414Z,100593.19
2024-04-08T17:48:37.758Z,100602.38
2024-04-08T17:51:08.918Z,100599.44
2024-04-08T17:53:36.828Z,100607.03
2024-04-08T17:56:09.802Z,100600.63
2024-04-08T17:58:37.714Z,100597.88
2024-04-08T18:01:08.046Z,100595.97
2024-04-08T18:03:36.294Z,100588.34
2024-04-08T18:06:17.242Z,100581.94
2024-04-08T18:08:46.109Z,100576.53
2024-04-08T18:11:13.824Z,100573.97
2024-04-08T18:13:41.715Z,100576.38
2024-04-08T18:16:16.898Z,100567.44
2024-04-08T18:18:46.269Z,100569.34
2024-04-08T18:21:13.214Z,100565.13
2024-04-08T18:23:42.241Z,100561.53
2024-04-08T18:26:16.740Z,100565.28
2024-04-08T18:28:45.595Z,100562.50
2024-04-08T18:31:14.014Z,100569.34
2024-04-08T18:33:43.385Z,100567.59
2024-04-08T18:36:10.295Z,100568.00
2024-04-08T18:38:37.129Z,100552.97
2024-04-08T18:41:11.659Z,100558.81
2024-04-08T18:43:39.878Z,100554.03
2024-04-08T18:46:10.499Z,100559.03
2024-04-08T18:48:38.185Z,100554.75
2024-04-08T18:51:05.608Z,100558.09
2024-04-08T18:53:33.636Z,100561.22
2024-04-08T18:56:00.399Z,100564.41
2024-04-08T18:58:26.988Z,100562.66
2024-04-08T19:00:53.717Z,100558.22
2024-04-08T19:03:21.128Z,100551.97
2024-04-08T19:05:50.118Z,100557.97
2024-04-08T19:08:17.336Z,100551.53
2024-04-08T19:10:43.984Z,100552.03
2024-04-08T19:13:13.323Z,100545.44
2024-04-08T19:15:41.803Z,100544.13
2024-04-08T19:18:08.665Z,100547.44
2024-04-08T19:20:38.865Z,100543.50
2024-04-08T19:23:05.486Z,100540.03
2024-04-08T19:25:32.176Z,100536.25
2024-04-08T19:27:59.169Z,100535.75
2024-04-08T19:30:26.196Z,100541.41
2024-04-08T19:32:54.278Z,100535.13
2024-04-08T19:35:20.985Z,100534.63
2024-04-08T19:37:47.700Z,100528.88
2024-04-08T19:40:16.896Z,100534.66
2024-04-08T19:42:43.567Z,100532.56
2024-04-08T19:45:19.023Z,100532.00
2024-04-08T19:47:49.230Z,100524.44
2024-04-08T19:50:16.309Z,100523.09
2024-04-08T19:53:01.481Z,100518.97
2024-04-08T19:55:28.400Z,100513.00
2024-04-08T19:57:54.967Z,100510.06
2024-04-08T20:00:22.697Z,100511.38
2024-04-08T20:02:49.420Z,100504.44
2024-04-08T20:05:21.790Z,100503.94
2024-04-08T20:07:48.459Z,100501.66
2024-04-08T20:10:15.034Z,100494.38
2024-04-08T20:12:41.690Z,100499.19
2024-04-08T20:15:08.630Z,100492.56
2024-04-08T20:17:38.827Z,100494.56
2024-04-08T20:20:08.911Z,100496.06
2024-04-08T20:22:35.521Z,100504.34
2024-04-08T20:25:02.087Z,100498.53
2024-04-08T20:27:37.980Z,100494.44
2024-04-08T20:30:05.328Z,100488.63
2024-04-08T20:32:32.091Z,100488.78
2024-04-08T20:34:58.905Z,100486.63
2024-04-08T20:37:25.530Z,100482.34
2024-04-08T20:39:53.954Z,100469.47
2024-04-08T20:42:20.639Z,100469.13
2024-04-08T20:44:47.538Z,100468.50
2024-04-08T20:47:19.162Z,100466.31
2024-04-08T20:49:47.950Z,100457.91
2024-04-08T20:52:15.847Z,100460.69
2024-04-08T20:54:43.466Z,100454.75
2024-04-08T20:57:10.088Z,100456.25
2024-04-08T20:59:36.695Z,100451.97
2024-04-08T21:02:03.378Z,100455.75
2024-04-08T21:04:31.551Z,100462.19
2024-04-08T21:06:58.185Z,100450.97
2024-04-08T21:09:29.362Z,100451.41
2024-04-08T21:11:56.102Z,100448.94
2024-04-08T21:14:22.818Z,100444.81
2024-04-08T21:16:49.387Z,100424.69
2024-04-08T21:19:19.049Z,100415.41
2024-04-08T21:21:45.771Z,100409.31
2024-04-08T21:24:12.514Z,100411.31
2024-04-08T21:26:39.134Z,100394.94
2024-04-08T21:29:05.810Z,100393.28
2024-04-08T21:31:32.463Z,100395.44
2024-04-08T21:33:59.375Z,100398.91
2024-04-08T21:36:26.098Z,100396.28
2024-04-08T21:38:53.811Z,100400.75
2024-04-08T21:41:21.491Z,100389.50
2024-04-08T21:43:48.127Z,100394.78
2024-04-08T21:46:17.761Z,100392.31
2024-04-08T21:48:44.711Z,100392.31
2024-04-08T21:51:17.957Z,100378.44
2024-04-08T21:53:45.090Z,100380.25
2024-04-08T21:56:11.824Z,100378.63
2024-04-08T21:58:41.113Z,100371.50
2024-04-08T22:01:09.760Z,100371.69
2024-04-08T22:03:37.431Z,100366.41
2024-04-08T22:06:12.112Z,100371.81
2024-04-08T22:08:41.794Z,100372.81
2024-04-08T22:11:12.934Z,100368.38
2024-04-08T22:13:41.969Z,100359.78
2024-04-08T22:16:08.958Z,100367.06
2024-04-08T22:18:37.264Z,100365.41
2024-04-08T22:21:04.101Z,100346.25
2024-04-08T22:23:30.812Z,100344.59
2024-04-08T22:25:57.381Z,100343.25
2024-04-08T22:28:25.611Z,100338.31
2024-04-08T22:30:52.264Z,100340.13
2024-04-08T22:33:19.060Z,100326.94
2024-04-08T22:35:46.018Z,100329.56
2024-04-08T22:38:12.609Z,100327.75
2024-04-08T22:40:41.102Z,100325.13
2024-04-08T22:43:07.699Z,100336.84
2024-04-08T22:45:34.350Z,100348.41
2024-04-08T22:48:01.065Z,100348.53
2024-04-08T22:50:27.844Z,100348.53
2024-04-08T22:52:54.400Z,100352.16
2024-04-08T22:55:22.259Z,100358.44
2024-04-08T22:57:48.860Z,100360.25
2024-04-08T23:00:15.920Z,100372.63
2024-04-08T23:02:47.245Z,100501.16
2024-04-08T23:05:14.532Z,100513.72
2024-04-08T23:07:41.157Z,100503.66
2024-04-08T23:10:08.348Z,100491.19
2024-04-08T23:12:35.234Z,100496.66
2024-04-08T23:15:02.231Z,100517.63
2024-04-08T23:17:29.065Z,100523.88
2024-04-08T23:19:55.723Z,100518.91
2024-04-08T23:22:22.516Z,100521.72
2024-04-08T23:24:49.168Z,100524.88
2024-04-08T23:27:15.787Z,100516.41
2024-04-08T23:29:42.424Z,100521.88
2024-04-08T23:32:10.252Z,100530.91
2024-04-08T23:34:37.425Z,100533.06
2024-04-08T23:37:04.491Z,100523.78
2024-04-08T23:39:31.249Z,100507.47
2024-04-08T23:41:57.946Z,100460.75
2024-04-08T23:44:24.879Z,100387.84
2024-04-08T23:46:51.480Z,100352.34
2024-04-08T23:49:18.128Z,100377.56
2024-04-08T23:51:47.441Z,100392.59
2024-04-08T23:54:14.191Z,100389.28
2024-04-08T23:56:40.834Z,100393.22
2024-04-08T23:59:07.897Z,100393.56
